• Join FlightAware (Why Join?)
  • Login
  • US Flag 
07:43PM EDT


 

Airport Tracker/Info


-or-


 

Live Flight TrackerFlight Track Log ✈ N877PM ✈ 18-Jul-2013 ✈ KILM - KAPF

Flight Track Log - Related Links

Times and Time Zones

All times are in EDT time to prevent confusion due to time zone crossing. See the N877PM flight status page for this flight to view local times or setup timezone preferences in your user account.

Time Position Orientation Groundspeed Altitude Reporting Facility
EDT Latitude Longitude Course Direction KTS MPH feet Rate Location/Type
06:25PM 34.2039 -77.9975 232° Southwest 159 183 3,800  Level Washington Center
06:26PM 34.1717 -78.0417 229° Southwest 177 204 5,600 1,860 Climbing Washington Center
06:27PM 34.1233 -78.0706 206° Southwest 183 211 7,600 1,920 Climbing Washington Center
06:29PM 33.8227 -78.1220 203° Southwest  Level FlightAware Approximate
06:29PM 34.0542 -78.1556 226° Southwest 176 203 11,600  Level Jacksonville Center
06:30PM 34.0331 -78.2067 244° Southwest 176 203 13,100 1,440 Climbing Jacksonville Center
06:31PM 34.0100 -78.2581 242° Southwest 176 203 14,500 1,380 Climbing Jacksonville Center
06:32PM 33.9892 -78.3142 246° West 186 214 15,900 1,320 Climbing Jacksonville Center
06:33PM 33.9639 -78.3681 241° Southwest 186 214 17,200 1,200 Climbing Jacksonville Center
06:34PM 33.9408 -78.4244 244° Southwest 186 214 18,400 1,200 Climbing Jacksonville Center
06:35PM 33.9178 -78.4806 244° Southwest 186 214 19,600 1,140 Climbing Jacksonville Center
06:36PM 33.8928 -78.5369 242° Southwest 186 214 20,700 1,020 Climbing Jacksonville Center
06:37PM 33.8675 -78.5933 242° Southwest 186 214 21,700 1,020 Climbing Jacksonville Center
06:38PM 33.8422 -78.6519 243° Southwest 191 220 22,800 1,080 Climbing Jacksonville Center
06:39PM 33.8172 -78.7131 244° Southwest 196 226 23,900 1,080 Climbing Jacksonville Center
06:40PM 33.7878 -78.7644 235° Southwest 196 226 25,000 1,080 Climbing Jacksonville Center
06:41PM 33.7497 -78.8161 228° Southwest 202 232 26,100 960 Climbing Jacksonville Center
06:42PM 33.7139 -78.8678 230° Southwest 207 238 27,000 900 Climbing Jacksonville Center
06:43PM 33.6778 -78.9194 230° Southwest 212 244 28,000 900 Climbing Jacksonville Center
06:44PM 33.6419 -78.9733 231° Southwest 212 244 28,800 840 Climbing Jacksonville Center
06:45PM 33.6042 -79.0300 231° Southwest 212 244 29,700 840 Climbing Jacksonville Center
06:46PM 33.5639 -79.0814 227° Southwest 212 244 30,500 780 Climbing Jacksonville Center
06:47PM 33.5300 -79.1353 233° Southwest 212 244 31,300 780 Climbing Jacksonville Center
06:48PM 33.4900 -79.1917 230° Southwest 212 244 32,100 720 Climbing Jacksonville Center
06:49PM 33.4500 -79.2483 230° Southwest 212 244 32,800 720 Climbing Jacksonville Center
06:50PM 33.4119 -79.3044 231° Southwest 212 244 33,600 660 Climbing Jacksonville Center
06:51PM 33.3717 -79.3633 231° Southwest 217 250 34,200 600 Climbing Jacksonville Center
06:52PM 33.3275 -79.4172 226° Southwest 223 257 34,900 600 Climbing Jacksonville Center
06:53PM 33.2808 -79.4664 221° Southwest 223 257 35,400 540 Climbing Jacksonville Center
06:54PM 33.2319 -79.5153 220° Southwest 228 262 36,000 600 Climbing Jacksonville Center
06:55PM 33.1853 -79.5619 220° Southwest 233 268 36,600 540 Climbing Jacksonville Center
06:56PM 33.1344 -79.6133 220° Southwest 233 268 37,100 480 Climbing Jacksonville Center
06:57PM 33.0856 -79.6622 220° Southwest 233 268 37,600 420 Climbing Jacksonville Center
06:58PM 33.0347 -79.7161 222° Southwest 233 268 38,000 180 Climbing Jacksonville Center
06:59PM 32.9797 -79.7725 221° Southwest 241 277 38,000  Level Jacksonville Center
07:00PM 32.9164 -79.8317 218° Southwest 272 313 38,000  Level Jacksonville Center
07:01PM 32.8533 -79.9006 223° Southwest 298 343 38,000  Level Jacksonville Center
07:02PM 32.7842 -79.9669 219° Southwest 312 359 38,000  Level Jacksonville Center
07:03PM 32.7147 -80.0383 221° Southwest 324 373 38,000  Level Jacksonville Center
07:04PM 32.6372 -80.1172 221° Southwest 330 380 38,000  Level Jacksonville Center
07:05PM 32.5678 -80.1883 221° Southwest 335 386 38,000  Level Jacksonville Center
07:06PM 32.4942 -80.2622 220° Southwest 335 386 38,000  Level Jacksonville Center
07:07PM 32.4247 -80.3331 221° Southwest 340 391 38,000  Level Jacksonville Center
07:08PM 32.3531 -80.4039 220° Southwest 340 391 38,000  Level Jacksonville Center
07:09PM 32.2833 -80.4722 220° Southwest 332 382 38,000  Level Jacksonville Center
07:10PM 32.2094 -80.5453 220° Southwest 342 394 38,000  Level Jacksonville Center
07:11PM 32.1397 -80.6158 221° Southwest 347 399 38,000  Level Jacksonville Center
07:12PM 32.0742 -80.6811 220° Southwest 347 399 38,000  Level Jacksonville Center
07:13PM 31.9919 -80.7589 219° Southwest 347 399 38,000  Level Jacksonville Center
07:14PM 31.9181 -80.8317 220° Southwest 348 400 38,000  Level Jacksonville Center
07:15PM 31.8419 -80.9067 220° Southwest 348 400 38,000  Level Jacksonville Center
07:16PM 31.7678 -80.9767 219° Southwest 348 400 38,000  Level Jacksonville Center
07:17PM 31.7019 -81.0417 220° Southwest 354 407 38,000  Level Jacksonville Center
07:18PM 31.6217 -81.1214 220° Southwest 349 402 38,000  Level Jacksonville Center
07:19PM 31.5475 -81.1933 220° Southwest 349 402 38,000  Level Jacksonville Center
07:20PM 31.4817 -81.2581 220° Southwest 349 402 38,000  Level Jacksonville Center
07:21PM 31.3947 -81.3253 213° Southwest 349 402 38,000  Level Jacksonville Center
07:22PM 31.3203 -81.3775 211° Southwest 349 402 38,000  Level Jacksonville Center
07:23PM 31.2417 -81.4322 211° Southwest 343 395 38,000  Level Jacksonville Center
07:24PM 31.1586 -81.4894 211° Southwest 343 395 38,000  Level Jacksonville Center
07:25PM 31.0778 -81.5439 210° Southwest 338 389 38,000  Level Jacksonville Center
07:26PM 30.9950 -81.5983 209° Southwest 338 389 38,000  Level Jacksonville Center
07:27PM 30.9161 -81.6503 209° Southwest 338 389 38,000  Level Jacksonville Center
07:28PM 30.8353 -81.7047 210° Southwest 338 389 38,000  Level Jacksonville Center
07:29PM 30.7481 -81.7639 210° Southwest 338 389 38,000  Level Jacksonville Center
07:30PM 30.6692 -81.8153 209° Southwest 333 383 38,000  Level Jacksonville Center
07:31PM 30.5922 -81.8694 211° Southwest 328 377 38,000  Level Jacksonville Center
07:32PM 30.5111 -81.9136 205° Southwest 328 377 38,000  Level Jacksonville Center
07:33PM 30.4344 -81.9650 210° Southwest 328 377 38,000  Level Jacksonville Center
07:34PM 30.3575 -82.0186 211° Southwest 328 377 38,000  Level Jacksonville Center
07:35PM 30.2828 -82.0675 209° Southwest 323 372 38,000  Level Jacksonville Center
07:36PM 30.2036 -82.1164 208° Southwest 323 372 38,000 -300 Level Jacksonville Center
07:37PM 30.1139 -82.1169 180° South 316 364 37,400 -780 Descending Jacksonville Center
07:39PM 29.9258 -82.0872 172° South 335 386 35,800 -1,020 Descending Jacksonville Center
07:40PM 29.8381 -82.0664 168° South 354 407 34,500 -1,260 Descending Jacksonville Center
07:41PM 29.7375 -82.0411 168° South 354 407 33,300 -780 Descending Jacksonville Center
07:42PM 29.6478 -82.0275 172° South 349 402 33,000 -180 Descending Jacksonville Center
07:43PM 29.5558 -82.0092 170° South 349 402 33,000 -60 Level Jacksonville Center
07:44PM 29.4636 -81.9886 169° South 349 402 32,900 -600 Descending Jacksonville Center
07:45PM 29.3697 -81.9750 173° South 349 402 31,900 -1,020 Descending Jacksonville Center
07:46PM 29.2736 -81.9569 171° South 349 402 30,900 -1,260 Descending Jacksonville Center
07:47PM 29.1647 -81.9272 167° South 354 407 29,400 -1,200 Descending Jacksonville Center
07:49PM 28.9447 -81.8839 170° South 354 407 27,000 -720 Descending Miami Center
07:50PM 28.8492 -81.8725 174° South 354 407 27,000  Level Miami Center
07:51PM 28.7625 -81.8522 168° South 342 394 27,000  Level Miami Center
07:52PM 28.6733 -81.8364 171° South 329 379 27,000  Level Miami Center
07:53PM 28.5883 -81.8158 168° South 323 372 27,000  Level Miami Center
07:54PM 28.5036 -81.7956 168° South 318 366 27,000  Level Miami Center
07:55PM 28.4169 -81.7706 166° South 318 366 27,000  Level Miami Center
07:56PM 28.3281 -81.7478 167° South 318 366 27,000  Level Miami Center
07:57PM 28.2414 -81.7206 165° South 318 366 27,000  Level Miami Center
07:58PM 28.1544 -81.7003 168° South 318 366 27,000  Level Miami Center
07:59PM 28.0697 -81.6708 163° South 318 366 27,000 -720 Level Miami Center
08:00PM 27.9772 -81.6903 191° South 318 366 25,600 -1,140 Descending Miami Center
08:01PM 27.8867 -81.7169 195° South 329 379 24,800 -1,020 Descending Miami Center
08:02PM 27.7897 -81.7458 195° South 335 386 23,600 -1,380 Descending Miami Center
08:03PM 27.7014 -81.7678 192° South 340 391 22,100 -1,500 Descending Miami Center
08:04PM 27.6222 -81.7667 179° South 324 373 20,600 -1,680 Descending Miami Center
08:05PM 27.5436 -81.7400 163° South 308 354 18,800 -1,800 Descending Miami Center
08:06PM 27.4614 -81.7036 159° South 296 341 17,100 -1,800 Descending Miami Center
08:07PM 27.3958 -81.6681 154° Southeast 285 328 15,300 -1,800 Descending Miami Center
08:08PM 27.3319 -81.6397 158° South 264 304 13,500 -1,920 Descending Miami Center
08:09PM 27.2664 -81.6067 156° South 258 297 11,500 -1,800 Descending Miami Center
08:10PM 27.2047 -81.5786 158° South 248 285 9,900 -840 Descending Miami Center
08:11PM 27.1389 -81.5456 156° South 248 285 9,900  Level Miami Center
08:12PM 27.0669 -81.5122 158° South 259 298 9,900  Level Miami Center
08:13PM 27.0033 -81.4817 157° South 269 310 10,000  Climbing Miami Center
08:14PM 26.9356 -81.4464 155° Southeast 274 315 10,000  Level Miami Center
08:15PM 26.8678 -81.4111 155° Southeast 274 315 10,000 -300 Level Miami Center
08:16PM 26.7950 -81.3944 168° South 268 308 9,400 -780 Descending Miami Center
08:17PM 26.7261 -81.3964 181° South 255 293 8,500 -1,080 Descending Miami Center
08:18PM 26.6592 -81.3986 182° South 250 288 7,300 -1,200 Descending Miami Center
08:20PM 26.5564 -81.3934 188° South  Level FlightAware Approximate
08:27PM 26.1571 -81.7490 246° West  Level FlightAware Approximate
08:28PM 26.1500 -81.7667 246° West  Level FlightAware Approximate
08:29PM 26.1524 -81.7756 246° West  Level Estimated
08:30PM 26.1524 -81.7756 246° West  Level Estimated
08:31PM 26.1524 -81.7756 246° West  Level Estimated
08:32PM 26.1524 -81.7756 246° West  Level Estimated
08:33PM 26.1524 -81.7756 246° West  Level Estimated
08:34PM 26.1524 -81.7756 246° West  Level Estimated
08:35PM 26.1524 -81.7756 246° West  Level Estimated
08:36PM 26.1524 -81.7756 246° West  Level Estimated
08:37PM 26.1524 -81.7756 246° West  Level Estimated
08:38PM 26.1524 -81.7756 246° West  Level Estimated
08:39PM 26.1524 -81.7756 246° West  Level Estimated
08:40PM 26.1524 -81.7756 246° West  Level Estimated